Pisces — WDE7319 — position and weather

sailwx.info

Track history (hours):
 
Tides and Currents Weather Stations Pressure Air Temp Water Temp Dewpoint Dewpoint Depression Visibility Wind Speed Wind Dir Waves Ship Positions

Pisces

Owner: San Francisco Bay Area Water Emergency Transportation Authority, San Francisco, CA. More information available from US FCC via Universal Licensing System and Coast Guard Vessel Documentation Center.

Last reported at 2017-Dec-11 17:00 UTC. Time now 2017-Dec-11 19:16 UTC.
Position N 37°48' W 122°24'.

Length 35 m.

MMSI: 367391830.

Date/timePositionNaut miles runAvg speedWind from/ knotsBaromVisibWave heightAir tempDewpointWater temp
2017-Dec-11 17:00N 37°48' W 122°24'816.6
2017-Dec-11 16:30N 37°40' W 122°23'713.8
2017-Dec-11 16:01N 37°47' W 122°20'2 4.7
2017-Dec-11 15:31N 37°47' W 122°18'611.3
2017-Dec-11 15:00N 37°49' W 122°25'0 0.0
2017-Dec-11 14:30N 37°49' W 122°25'0 0.0
2017-Dec-11 14:00N 37°49' W 122°25'  
2017-Dec-09 05:38N 37°49' W 122°25'0 1.3
2017-Dec-09 05:31N 37°49' W 122°25'612.9
2017-Dec-09 05:00N 37°48' W 122°17'4 8.2
2017-Dec-09 04:31N 37°48' W 122°22'2 4.9
2017-Dec-09 04:00N 37°49' W 122°25'0 0.0
2017-Dec-09 03:30N 37°49' W 122°25'1 2.0
2017-Dec-09 03:01N 37°49' W 122°24'5 9.8
2017-Dec-09 02:31N 37°47' W 122°18'5 9.0
2017-Dec-09 02:01N 37°48' W 122°23'510.3
2017-Dec-09 01:30N 37°48' W 122°17'0 0.1
2017-Dec-09 01:00N 37°48' W 122°17'1 2.9
2017-Dec-09 00:31N 37°48' W 122°19'5 9.7
2017-Dec-09 00:00N 37°49' W 122°25'0 0.0
2017-Dec-08 23:31N 37°49' W 122°25'0 0.0
2017-Dec-08 23:01N 37°49' W 122°25'0 0.0
2017-Dec-08 22:31N 37°49' W 122°25'0 0.0
2017-Dec-08 22:00N 37°49' W 122°25'0 0.0
2017-Dec-08 21:30N 37°49' W 122°25'0 0.0
2017-Dec-08 21:01N 37°49' W 122°25'0 0.0
2017-Dec-08 20:31N 37°49' W 122°25'0 0.0
2017-Dec-08 20:01N 37°49' W 122°25'0 0.5
2017-Dec-08 19:30N 37°49' W 122°25'918.3
2017-Dec-08 19:00N 37°40' W 122°22'0 0.2
2017-Dec-08 18:15N 37°40' W 122°23'0 0.0
2017-Dec-08 18:00N 37°40' W 122°23'0 0.0
2017-Dec-08 17:30N 37°40' W 122°23'0 0.0
2017-Dec-08 17:00N 37°40' W 122°23'0 0.0
2017-Dec-08 16:30N 37°40' W 122°23'0 0.1
2017-Dec-08 16:00N 37°40' W 122°23'815.6
2017-Dec-08 15:30N 37°48' W 122°24'714.7
2017-Dec-08 15:00N 37°44' W 122°15'4 8.6
2017-Dec-08 14:30N 37°46' W 122°20'4 8.5
2017-Dec-08 14:00N 37°49' W 122°25'0 0.0
2017-Dec-08 13:30N 37°49' W 122°25'0 0.0
2017-Dec-08 04:26N 37°49' W 122°25'614.0
2017-Dec-08 04:00N 37°48' W 122°17'2 4.5
2017-Dec-08 03:31N 37°48' W 122°20'816.4
2017-Dec-08 03:00N 37°40' W 122°23'714.3
2017-Dec-08 02:31N 37°44' W 122°15'714.6
2017-Dec-08 02:01N 37°48' W 122°24'5 9.3
2017-Dec-08 01:31N 37°47' W 122°18'1 1.4
2017-Dec-08 01:01N 37°48' W 122°17'714.9
2017-Dec-08 00:31N 37°41' W 122°21'0 0.9
2017-Dec-08 00:01N 37°42' W 122°21'815.1
2017-Dec-07 23:31N 37°49' W 122°25'0 0.3
2017-Dec-07 23:01N 37°49' W 122°25'1 1.7
2017-Dec-07 22:30N 37°48' W 122°24'0 0.0
2017-Dec-07 22:00N 37°48' W 122°24'0 0.0
2017-Dec-07 21:30N 37°48' W 122°24'0 0.0
2017-Dec-07 21:00N 37°48' W 122°24'0 0.0
2017-Dec-07 20:30N 37°48' W 122°24'0 0.0
2017-Dec-07 20:00N 37°48' W 122°24'0 0.0
2017-Dec-07 19:30N 37°48' W 122°24'0 0.0
2017-Dec-07 19:00N 37°48' W 122°24'0 0.0
2017-Dec-07 18:30N 37°48' W 122°24'0 0.0
2017-Dec-07 18:00N 37°48' W 122°24'0 0.0
2017-Dec-07 17:30N 37°48' W 122°24'0 0.0
2017-Dec-07 17:00N 37°48' W 122°24'816.4
2017-Dec-07 16:30N 37°40' W 122°23'611.9
2017-Dec-07 16:01N 37°46' W 122°21'3 6.7
2017-Dec-07 15:30N 37°47' W 122°18'5 9.7
2017-Dec-07 15:00N 37°48' W 122°24'0 0.0
2017-Dec-07 14:30N 37°48' W 122°24'0 0.0
2017-Dec-07 04:28N 37°48' W 122°24'612.2
2017-Dec-07 04:00N 37°48' W 122°17'3 6.7
2017-Dec-07 03:30N 37°46' W 122°21'713.3
2017-Dec-07 03:00N 37°40' W 122°23'714.2
2017-Dec-07 02:30N 37°44' W 122°15'714.7
2017-Dec-07 02:00N 37°48' W 122°24'5 9.3
2017-Dec-07 01:30N 37°47' W 122°18'1 1.4
2017-Dec-07 01:01N 37°48' W 122°17'815.6
2017-Dec-07 00:31N 37°41' W 122°22'1 2.6
2017-Dec-07 00:01N 37°40' W 122°23'815.7
2017-Dec-06 23:30N 37°48' W 122°24'0 0.9
2017-Dec-06 23:00N 37°48' W 122°24'0 0.0
2017-Dec-06 22:30N 37°48' W 122°24'0 0.0
2017-Dec-06 22:00N 37°48' W 122°24'0 0.0
2017-Dec-06 21:30N 37°48' W 122°24'0 0.0
2017-Dec-06 21:00N 37°48' W 122°24'  
2017-Dec-02 04:38N 37°40' W 122°23'0 0.5
2017-Dec-02 04:30N 37°40' W 122°23'917.5
2017-Dec-02 04:00N 37°48' W 122°17'2 4.8
2017-Dec-02 03:31N 37°47' W 122°20'815.7
2017-Dec-02 03:00N 37°40' W 122°23'714.3
2017-Dec-02 02:30N 37°44' W 122°15'712.7
2017-Dec-02 01:56N 37°48' W 122°24'5 9.7
2017-Dec-02 01:28N 37°47' W 122°18'1 1.5
2017-Dec-02 00:59N 37°48' W 122°17'817.2
2017-Dec-02 00:30N 37°40' W 122°22'1 1.8
2017-Dec-02 00:00N 37°40' W 122°23'814.5
2017-Dec-01 23:28N 37°48' W 122°24'0 0.8
2017-Dec-01 22:53N 37°48' W 122°24'0 0.0
2017-Dec-01 22:29N 37°48' W 122°24'0 0.0
2017-Dec-01 21:59N 37°48' W 122°24'0 0.0
2017-Dec-01 21:29N 37°48' W 122°24'0 0.0
2017-Dec-01 20:56N 37°48' W 122°24'0 0.0
2017-Dec-01 20:29N 37°48' W 122°24'0 0.0
2017-Dec-01 19:56N 37°48' W 122°24'0 0.0
2017-Dec-01 19:29N 37°48' W 122°24'0 0.0
2017-Dec-01 18:59N 37°48' W 122°24'0 0.0
2017-Dec-01 18:26N 37°48' W 122°24'0 0.0
2017-Dec-01 17:59N 37°48' W 122°24'0 0.0
2017-Dec-01 17:26N 37°48' W 122°24'  
Track history (hours):
 
Tides and Currents Weather Stations Pressure Air Temp Water Temp Dewpoint Dewpoint Depression Visibility Wind Speed Wind Dir Waves Ship Positions

Pisces

Owner: San Francisco Bay Area Water Emergency Transportation Authority, San Francisco, CA. More information available from US FCC via Universal Licensing System and Coast Guard Vessel Documentation Center.

Last reported at 2017-Dec-11 17:00 UTC. Time now 2017-Dec-11 19:16 UTC.
Position N 37°48' W 122°24'.

Length 35 m.

MMSI: 367391830.

Date/timePositionNaut miles runAvg speedWind from/ knotsBaromVisibWave heightAir tempDewpointWater temp
2017-Dec-11 17:00N 37°48' W 122°24'816.6
2017-Dec-11 16:30N 37°40' W 122°23'713.8
2017-Dec-11 16:01N 37°47' W 122°20'2 4.7
2017-Dec-11 15:31N 37°47' W 122°18'611.3
2017-Dec-11 15:00N 37°49' W 122°25'0 0.0
2017-Dec-11 14:30N 37°49' W 122°25'0 0.0
2017-Dec-11 14:00N 37°49' W 122°25'  
2017-Dec-09 05:38N 37°49' W 122°25'0 1.3
2017-Dec-09 05:31N 37°49' W 122°25'612.9
2017-Dec-09 05:00N 37°48' W 122°17'4 8.2
2017-Dec-09 04:31N 37°48' W 122°22'2 4.9
2017-Dec-09 04:00N 37°49' W 122°25'0 0.0
2017-Dec-09 03:30N 37°49' W 122°25'1 2.0
2017-Dec-09 03:01N 37°49' W 122°24'5 9.8
2017-Dec-09 02:31N 37°47' W 122°18'5 9.0
2017-Dec-09 02:01N 37°48' W 122°23'510.3
2017-Dec-09 01:30N 37°48' W 122°17'0 0.1
2017-Dec-09 01:00N 37°48' W 122°17'1 2.9
2017-Dec-09 00:31N 37°48' W 122°19'5 9.7
2017-Dec-09 00:00N 37°49' W 122°25'0 0.0
2017-Dec-08 23:31N 37°49' W 122°25'0 0.0
2017-Dec-08 23:01N 37°49' W 122°25'0 0.0
2017-Dec-08 22:31N 37°49' W 122°25'0 0.0
2017-Dec-08 22:00N 37°49' W 122°25'0 0.0
2017-Dec-08 21:30N 37°49' W 122°25'0 0.0
2017-Dec-08 21:01N 37°49' W 122°25'0 0.0
2017-Dec-08 20:31N 37°49' W 122°25'0 0.0
2017-Dec-08 20:01N 37°49' W 122°25'0 0.5
2017-Dec-08 19:30N 37°49' W 122°25'918.3
2017-Dec-08 19:00N 37°40' W 122°22'0 0.2
2017-Dec-08 18:15N 37°40' W 122°23'0 0.0
2017-Dec-08 18:00N 37°40' W 122°23'0 0.0
2017-Dec-08 17:30N 37°40' W 122°23'0 0.0
2017-Dec-08 17:00N 37°40' W 122°23'0 0.0
2017-Dec-08 16:30N 37°40' W 122°23'0 0.1
2017-Dec-08 16:00N 37°40' W 122°23'815.6
2017-Dec-08 15:30N 37°48' W 122°24'714.7
2017-Dec-08 15:00N 37°44' W 122°15'4 8.6
2017-Dec-08 14:30N 37°46' W 122°20'4 8.5
2017-Dec-08 14:00N 37°49' W 122°25'0 0.0
2017-Dec-08 13:30N 37°49' W 122°25'0 0.0
2017-Dec-08 04:26N 37°49' W 122°25'614.0
2017-Dec-08 04:00N 37°48' W 122°17'2 4.5
2017-Dec-08 03:31N 37°48' W 122°20'816.4
2017-Dec-08 03:00N 37°40' W 122°23'714.3
2017-Dec-08 02:31N 37°44' W 122°15'714.6
2017-Dec-08 02:01N 37°48' W 122°24'5 9.3
2017-Dec-08 01:31N 37°47' W 122°18'1 1.4
2017-Dec-08 01:01N 37°48' W 122°17'714.9
2017-Dec-08 00:31N 37°41' W 122°21'0 0.9
2017-Dec-08 00:01N 37°42' W 122°21'815.1
2017-Dec-07 23:31N 37°49' W 122°25'0 0.3
2017-Dec-07 23:01N 37°49' W 122°25'1 1.7
2017-Dec-07 22:30N 37°48' W 122°24'0 0.0
2017-Dec-07 22:00N 37°48' W 122°24'0 0.0
2017-Dec-07 21:30N 37°48' W 122°24'0 0.0
2017-Dec-07 21:00N 37°48' W 122°24'0 0.0
2017-Dec-07 20:30N 37°48' W 122°24'0 0.0
2017-Dec-07 20:00N 37°48' W 122°24'0 0.0
2017-Dec-07 19:30N 37°48' W 122°24'0 0.0
2017-Dec-07 19:00N 37°48' W 122°24'0 0.0
2017-Dec-07 18:30N 37°48' W 122°24'0 0.0
2017-Dec-07 18:00N 37°48' W 122°24'0 0.0
2017-Dec-07 17:30N 37°48' W 122°24'0 0.0
2017-Dec-07 17:00N 37°48' W 122°24'816.4
2017-Dec-07 16:30N 37°40' W 122°23'611.9
2017-Dec-07 16:01N 37°46' W 122°21'3 6.7
2017-Dec-07 15:30N 37°47' W 122°18'5 9.7
2017-Dec-07 15:00N 37°48' W 122°24'0 0.0
2017-Dec-07 14:30N 37°48' W 122°24'0 0.0
2017-Dec-07 04:28N 37°48' W 122°24'612.2
2017-Dec-07 04:00N 37°48' W 122°17'3 6.7
2017-Dec-07 03:30N 37°46' W 122°21'713.3
2017-Dec-07 03:00N 37°40' W 122°23'714.2
2017-Dec-07 02:30N 37°44' W 122°15'714.7
2017-Dec-07 02:00N 37°48' W 122°24'5 9.3
2017-Dec-07 01:30N 37°47' W 122°18'1 1.4
2017-Dec-07 01:01N 37°48' W 122°17'815.6
2017-Dec-07 00:31N 37°41' W 122°22'1 2.6
2017-Dec-07 00:01N 37°40' W 122°23'815.7
2017-Dec-06 23:30N 37°48' W 122°24'0 0.9
2017-Dec-06 23:00N 37°48' W 122°24'0 0.0
2017-Dec-06 22:30N 37°48' W 122°24'0 0.0
2017-Dec-06 22:00N 37°48' W 122°24'0 0.0
2017-Dec-06 21:30N 37°48' W 122°24'0 0.0
2017-Dec-06 21:00N 37°48' W 122°24'  
2017-Dec-02 04:38N 37°40' W 122°23'0 0.5
2017-Dec-02 04:30N 37°40' W 122°23'917.5
2017-Dec-02 04:00N 37°48' W 122°17'2 4.8
2017-Dec-02 03:31N 37°47' W 122°20'815.7
2017-Dec-02 03:00N 37°40' W 122°23'714.3
2017-Dec-02 02:30N 37°44' W 122°15'712.7
2017-Dec-02 01:56N 37°48' W 122°24'5 9.7
2017-Dec-02 01:28N 37°47' W 122°18'1 1.5
2017-Dec-02 00:59N 37°48' W 122°17'817.2
2017-Dec-02 00:30N 37°40' W 122°22'1 1.8
2017-Dec-02 00:00N 37°40' W 122°23'814.5
2017-Dec-01 23:28N 37°48' W 122°24'0 0.8
2017-Dec-01 22:53N 37°48' W 122°24'0 0.0
2017-Dec-01 22:29N 37°48' W 122°24'0 0.0
2017-Dec-01 21:59N 37°48' W 122°24'0 0.0
2017-Dec-01 21:29N 37°48' W 122°24'0 0.0
2017-Dec-01 20:56N 37°48' W 122°24'0 0.0
2017-Dec-01 20:29N 37°48' W 122°24'0 0.0
2017-Dec-01 19:56N 37°48' W 122°24'0 0.0
2017-Dec-01 19:29N 37°48' W 122°24'0 0.0
2017-Dec-01 18:59N 37°48' W 122°24'0 0.0
2017-Dec-01 18:26N 37°48' W 122°24'0 0.0
2017-Dec-01 17:59N 37°48' W 122°24'0 0.0
2017-Dec-01 17:26N 37°48' W 122°24'  

Dump ship's entire track history